sensor_id;sensor_type;location;lat;lon;timestamp;P1;durP1;ratioP1;P2;durP2;ratioP2
22660;SDS011;11497;52.222;21.246;2024-02-14T00:02:04;20.30;;;9.35;;
22660;SDS011;11497;52.222;21.246;2024-02-14T00:04:32;16.95;;;9.32;;
22660;SDS011;11497;52.222;21.246;2024-02-14T00:07:00;17.63;;;8.48;;
22660;SDS011;11497;52.222;21.246;2024-02-14T00:09:28;20.23;;;8.52;;
22660;SDS011;11497;52.222;21.246;2024-02-14T00:11:56;14.82;;;7.70;;
22660;SDS011;11497;52.222;21.246;2024-02-14T00:14:24;16.70;;;8.63;;
22660;SDS011;11497;52.222;21.246;2024-02-14T00:16:52;20.50;;;8.43;;
22660;SDS011;11497;52.222;21.246;2024-02-14T00:19:20;14.23;;;7.80;;
22660;SDS011;11497;52.222;21.246;2024-02-14T00:21:48;15.43;;;8.68;;
22660;SDS011;11497;52.222;21.246;2024-02-14T00:24:16;19.63;;;9.38;;
22660;SDS011;11497;52.222;21.246;2024-02-14T00:26:45;18.70;;;8.85;;
22660;SDS011;11497;52.222;21.246;2024-02-14T00:29:13;18.58;;;9.10;;
22660;SDS011;11497;52.222;21.246;2024-02-14T00:31:41;20.27;;;9.50;;
22660;SDS011;11497;52.222;21.246;2024-02-14T00:34:11;18.00;;;8.95;;
22660;SDS011;11497;52.222;21.246;2024-02-14T00:36:39;20.77;;;9.68;;
22660;SDS011;11497;52.222;21.246;2024-02-14T00:39:07;18.55;;;9.23;;
22660;SDS011;11497;52.222;21.246;2024-02-14T00:41:36;15.13;;;8.82;;
22660;SDS011;11497;52.222;21.246;2024-02-14T00:44:04;17.77;;;8.88;;
22660;SDS011;11497;52.222;21.246;2024-02-14T00:46:32;15.10;;;9.50;;
22660;SDS011;11497;52.222;21.246;2024-02-14T00:49:01;18.15;;;9.60;;
22660;SDS011;11497;52.222;21.246;2024-02-14T00:51:29;21.75;;;9.77;;
22660;SDS011;11497;52.222;21.246;2024-02-14T00:53:57;13.18;;;8.07;;
22660;SDS011;11497;52.222;21.246;2024-02-14T00:56:25;18.70;;;8.50;;
22660;SDS011;11497;52.222;21.246;2024-02-14T00:58:53;17.65;;;8.88;;
22660;SDS011;11497;52.222;21.246;2024-02-14T01:01:21;14.07;;;7.85;;
22660;SDS011;11497;52.222;21.246;2024-02-14T01:03:49;18.35;;;8.80;;
22660;SDS011;11497;52.222;21.246;2024-02-14T01:06:17;19.83;;;8.07;;
22660;SDS011;11497;52.222;21.246;2024-02-14T01:08:46;15.07;;;7.85;;
22660;SDS011;11497;52.222;21.246;2024-02-14T01:11:14;18.10;;;7.78;;
22660;SDS011;11497;52.222;21.246;2024-02-14T01:13:42;15.73;;;8.35;;
22660;SDS011;11497;52.222;21.246;2024-02-14T01:16:10;16.45;;;8.10;;
22660;SDS011;11497;52.222;21.246;2024-02-14T01:18:38;15.35;;;7.82;;
22660;SDS011;11497;52.222;21.246;2024-02-14T01:21:06;13.77;;;8.20;;
22660;SDS011;11497;52.222;21.246;2024-02-14T01:23:35;20.30;;;7.93;;
22660;SDS011;11497;52.222;21.246;2024-02-14T01:26:03;17.08;;;8.10;;
22660;SDS011;11497;52.222;21.246;2024-02-14T01:28:31;16.27;;;7.70;;
22660;SDS011;11497;52.222;21.246;2024-02-14T01:31:00;18.00;;;8.38;;
22660;SDS011;11497;52.222;21.246;2024-02-14T01:33:28;13.80;;;7.45;;
22660;SDS011;11497;52.222;21.246;2024-02-14T01:35:58;16.67;;;7.75;;
22660;SDS011;11497;52.222;21.246;2024-02-14T01:38:26;20.45;;;7.97;;
22660;SDS011;11497;52.222;21.246;2024-02-14T01:40:54;15.82;;;7.85;;
22660;SDS011;11497;52.222;21.246;2024-02-14T01:43:22;14.27;;;7.88;;
22660;SDS011;11497;52.222;21.246;2024-02-14T01:45:50;14.82;;;7.70;;
22660;SDS011;11497;52.222;21.246;2024-02-14T01:48:18;20.00;;;8.27;;
22660;SDS011;11497;52.222;21.246;2024-02-14T01:50:47;15.75;;;7.55;;
22660;SDS011;11497;52.222;21.246;2024-02-14T01:53:16;15.07;;;8.38;;
22660;SDS011;11497;52.222;21.246;2024-02-14T01:55:44;14.45;;;7.47;;
22660;SDS011;11497;52.222;21.246;2024-02-14T01:58:12;17.40;;;8.82;;
22660;SDS011;11497;52.222;21.246;2024-02-14T02:00:40;20.02;;;8.73;;
22660;SDS011;11497;52.222;21.246;2024-02-14T02:03:12;15.65;;;7.97;;
22660;SDS011;11497;52.222;21.246;2024-02-14T02:05:41;20.52;;;8.38;;
22660;SDS011;11497;52.222;21.246;2024-02-14T02:08:09;16.48;;;7.82;;
22660;SDS011;11497;52.222;21.246;2024-02-14T02:10:37;19.00;;;8.52;;
22660;SDS011;11497;52.222;21.246;2024-02-14T02:13:05;18.27;;;8.50;;
22660;SDS011;11497;52.222;21.246;2024-02-14T02:15:35;16.08;;;8.80;;
22660;SDS011;11497;52.222;21.246;2024-02-14T02:18:04;21.98;;;9.50;;
22660;SDS011;11497;52.222;21.246;2024-02-14T02:20:33;13.52;;;8.40;;
22660;SDS011;11497;52.222;21.246;2024-02-14T02:23:01;14.35;;;8.77;;
22660;SDS011;11497;52.222;21.246;2024-02-14T02:25:29;15.30;;;8.73;;
22660;SDS011;11497;52.222;21.246;2024-02-14T02:27:57;20.48;;;8.32;;
22660;SDS011;11497;52.222;21.246;2024-02-14T02:30:25;16.85;;;8.48;;
22660;SDS011;11497;52.222;21.246;2024-02-14T02:32:54;19.77;;;8.27;;
22660;SDS011;11497;52.222;21.246;2024-02-14T02:35:23;18.90;;;9.05;;
22660;SDS011;11497;52.222;21.246;2024-02-14T02:37:52;17.67;;;9.15;;
22660;SDS011;11497;52.222;21.246;2024-02-14T02:40:22;18.92;;;9.45;;
22660;SDS011;11497;52.222;21.246;2024-02-14T02:42:51;22.08;;;9.68;;
22660;SDS011;11497;52.222;21.246;2024-02-14T02:45:19;16.92;;;8.43;;
22660;SDS011;11497;52.222;21.246;2024-02-14T02:47:48;18.48;;;9.00;;
22660;SDS011;11497;52.222;21.246;2024-02-14T02:50:19;21.77;;;9.73;;
22660;SDS011;11497;52.222;21.246;2024-02-14T02:52:48;19.85;;;10.07;;
22660;SDS011;11497;52.222;21.246;2024-02-14T02:55:16;22.25;;;10.85;;
22660;SDS011;11497;52.222;21.246;2024-02-14T02:57:45;20.67;;;9.93;;
22660;SDS011;11497;52.222;21.246;2024-02-14T03:00:13;18.40;;;9.80;;
22660;SDS011;11497;52.222;21.246;2024-02-14T03:02:43;22.92;;;9.95;;
22660;SDS011;11497;52.222;21.246;2024-02-14T03:05:14;17.75;;;9.88;;
22660;SDS011;11497;52.222;21.246;2024-02-14T03:07:46;21.45;;;10.98;;
22660;SDS011;11497;52.222;21.246;2024-02-14T03:10:15;22.65;;;10.35;;
22660;SDS011;11497;52.222;21.246;2024-02-14T03:12:46;21.58;;;10.27;;
22660;SDS011;11497;52.222;21.246;2024-02-14T03:15:15;26.90;;;13.23;;
22660;SDS011;11497;52.222;21.246;2024-02-14T03:17:44;28.02;;;11.95;;
22660;SDS011;11497;52.222;21.246;2024-02-14T03:20:13;27.70;;;13.90;;
22660;SDS011;11497;52.222;21.246;2024-02-14T03:22:44;28.50;;;13.77;;
22660;SDS011;11497;52.222;21.246;2024-02-14T03:25:13;22.17;;;11.60;;
22660;SDS011;11497;52.222;21.246;2024-02-14T03:27:44;19.77;;;11.75;;
22660;SDS011;11497;52.222;21.246;2024-02-14T03:30:14;23.90;;;13.25;;
22660;SDS011;11497;52.222;21.246;2024-02-14T03:32:45;21.65;;;12.13;;
22660;SDS011;11497;52.222;21.246;2024-02-14T03:35:13;24.30;;;12.93;;
22660;SDS011;11497;52.222;21.246;2024-02-14T03:37:42;23.67;;;12.68;;
22660;SDS011;11497;52.222;21.246;2024-02-14T03:40:14;22.05;;;12.00;;
22660;SDS011;11497;52.222;21.246;2024-02-14T03:42:43;20.23;;;11.32;;
22660;SDS011;11497;52.222;21.246;2024-02-14T03:45:11;23.10;;;13.05;;
22660;SDS011;11497;52.222;21.246;2024-02-14T03:47:39;24.58;;;12.60;;
22660;SDS011;11497;52.222;21.246;2024-02-14T03:50:09;23.63;;;11.85;;
22660;SDS011;11497;52.222;21.246;2024-02-14T03:52:37;23.42;;;11.82;;
22660;SDS011;11497;52.222;21.246;2024-02-14T03:55:05;25.75;;;12.35;;
22660;SDS011;11497;52.222;21.246;2024-02-14T03:57:35;22.85;;;12.20;;
22660;SDS011;11497;52.222;21.246;2024-02-14T04:00:06;27.27;;;11.75;;
22660;SDS011;11497;52.222;21.246;2024-02-14T04:02:39;24.98;;;11.90;;
22660;SDS011;11497;52.222;21.246;2024-02-14T04:05:07;19.52;;;11.10;;
22660;SDS011;11497;52.222;21.246;2024-02-14T04:07:36;24.08;;;11.73;;
22660;SDS011;11497;52.222;21.246;2024-02-14T04:10:05;25.98;;;13.13;;
22660;SDS011;11497;52.222;21.246;2024-02-14T04:12:33;23.08;;;12.70;;
22660;SDS011;11497;52.222;21.246;2024-02-14T04:15:01;27.95;;;12.43;;
22660;SDS011;11497;52.222;21.246;2024-02-14T04:17:29;24.50;;;13.40;;
22660;SDS011;11497;52.222;21.246;2024-02-14T04:19:58;24.38;;;13.25;;
22660;SDS011;11497;52.222;21.246;2024-02-14T04:22:25;26.67;;;14.15;;
22660;SDS011;11497;52.222;21.246;2024-02-14T04:24:54;23.42;;;14.18;;
22660;SDS011;11497;52.222;21.246;2024-02-14T04:27:22;25.30;;;13.63;;
22660;SDS011;11497;52.222;21.246;2024-02-14T04:29:50;30.15;;;14.35;;
22660;SDS011;11497;52.222;21.246;2024-02-14T04:32:18;29.52;;;14.95;;
22660;SDS011;11497;52.222;21.246;2024-02-14T04:34:47;28.60;;;15.68;;
22660;SDS011;11497;52.222;21.246;2024-02-14T04:37:16;28.95;;;15.73;;
22660;SDS011;11497;52.222;21.246;2024-02-14T04:39:45;32.50;;;16.00;;
22660;SDS011;11497;52.222;21.246;2024-02-14T04:42:13;28.30;;;15.52;;
22660;SDS011;11497;52.222;21.246;2024-02-14T04:44:41;28.02;;;15.48;;
22660;SDS011;11497;52.222;21.246;2024-02-14T04:47:10;25.27;;;14.60;;
22660;SDS011;11497;52.222;21.246;2024-02-14T04:49:38;30.08;;;15.32;;
22660;SDS011;11497;52.222;21.246;2024-02-14T04:52:06;33.55;;;17.30;;
22660;SDS011;11497;52.222;21.246;2024-02-14T04:54:35;29.05;;;15.60;;
22660;SDS011;11497;52.222;21.246;2024-02-14T04:57:03;30.40;;;16.45;;
22660;SDS011;11497;52.222;21.246;2024-02-14T04:59:31;32.78;;;17.10;;
22660;SDS011;11497;52.222;21.246;2024-02-14T05:01:59;30.13;;;16.90;;
22660;SDS011;11497;52.222;21.246;2024-02-14T05:04:27;29.25;;;15.65;;
22660;SDS011;11497;52.222;21.246;2024-02-14T05:06:56;28.98;;;15.70;;
22660;SDS011;11497;52.222;21.246;2024-02-14T05:09:25;31.33;;;15.82;;
22660;SDS011;11497;52.222;21.246;2024-02-14T05:11:54;32.70;;;16.15;;
22660;SDS011;11497;52.222;21.246;2024-02-14T05:14:22;33.50;;;15.35;;
22660;SDS011;11497;52.222;21.246;2024-02-14T05:16:50;31.77;;;16.40;;
22660;SDS011;11497;52.222;21.246;2024-02-14T05:19:18;26.02;;;14.68;;
22660;SDS011;11497;52.222;21.246;2024-02-14T05:21:49;32.53;;;16.55;;
22660;SDS011;11497;52.222;21.246;2024-02-14T05:24:17;35.20;;;18.58;;
22660;SDS011;11497;52.222;21.246;2024-02-14T05:26:46;30.13;;;17.65;;
22660;SDS011;11497;52.222;21.246;2024-02-14T05:29:14;37.78;;;18.98;;
22660;SDS011;11497;52.222;21.246;2024-02-14T05:31:46;34.10;;;18.02;;
22660;SDS011;11497;52.222;21.246;2024-02-14T05:34:19;37.70;;;18.77;;
22660;SDS011;11497;52.222;21.246;2024-02-14T05:36:47;35.85;;;18.55;;
22660;SDS011;11497;52.222;21.246;2024-02-14T05:39:15;40.88;;;21.00;;
22660;SDS011;11497;52.222;21.246;2024-02-14T05:41:43;47.97;;;21.67;;
22660;SDS011;11497;52.222;21.246;2024-02-14T05:44:11;48.38;;;22.80;;
22660;SDS011;11497;52.222;21.246;2024-02-14T05:46:39;51.10;;;22.50;;
22660;SDS011;11497;52.222;21.246;2024-02-14T05:49:08;45.38;;;20.88;;
22660;SDS011;11497;52.222;21.246;2024-02-14T05:51:36;42.15;;;20.90;;
22660;SDS011;11497;52.222;21.246;2024-02-14T05:54:04;42.85;;;20.27;;
22660;SDS011;11497;52.222;21.246;2024-02-14T05:56:32;39.63;;;20.25;;
22660;SDS011;11497;52.222;21.246;2024-02-14T05:59:00;44.15;;;19.85;;
22660;SDS011;11497;52.222;21.246;2024-02-14T06:01:29;37.80;;;19.75;;
22660;SDS011;11497;52.222;21.246;2024-02-14T06:03:57;37.38;;;19.98;;
22660;SDS011;11497;52.222;21.246;2024-02-14T06:06:25;39.55;;;19.27;;
22660;SDS011;11497;52.222;21.246;2024-02-14T06:08:53;38.58;;;18.85;;
22660;SDS011;11497;52.222;21.246;2024-02-14T06:11:22;40.28;;;19.38;;
22660;SDS011;11497;52.222;21.246;2024-02-14T06:13:50;41.72;;;21.13;;
22660;SDS011;11497;52.222;21.246;2024-02-14T06:16:17;36.30;;;19.67;;
22660;SDS011;11497;52.222;21.246;2024-02-14T06:18:45;41.22;;;20.88;;
22660;SDS011;11497;52.222;21.246;2024-02-14T06:21:14;36.15;;;19.27;;
22660;SDS011;11497;52.222;21.246;2024-02-14T06:23:42;41.97;;;19.98;;
22660;SDS011;11497;52.222;21.246;2024-02-14T06:26:11;38.58;;;20.38;;
22660;SDS011;11497;52.222;21.246;2024-02-14T06:28:39;38.33;;;20.77;;
22660;SDS011;11497;52.222;21.246;2024-02-14T06:31:07;40.70;;;19.70;;
22660;SDS011;11497;52.222;21.246;2024-02-14T06:33:35;37.13;;;19.73;;
22660;SDS011;11497;52.222;21.246;2024-02-14T06:36:04;36.75;;;20.52;;
22660;SDS011;11497;52.222;21.246;2024-02-14T06:38:32;40.53;;;21.08;;
22660;SDS011;11497;52.222;21.246;2024-02-14T06:41:00;42.75;;;22.50;;
22660;SDS011;11497;52.222;21.246;2024-02-14T06:43:28;37.47;;;21.23;;
22660;SDS011;11497;52.222;21.246;2024-02-14T06:45:56;38.80;;;20.23;;
22660;SDS011;11497;52.222;21.246;2024-02-14T06:48:24;33.85;;;19.23;;
22660;SDS011;11497;52.222;21.246;2024-02-14T06:50:52;31.05;;;17.63;;
22660;SDS011;11497;52.222;21.246;2024-02-14T06:53:20;29.73;;;17.05;;
22660;SDS011;11497;52.222;21.246;2024-02-14T06:55:49;30.95;;;17.67;;
22660;SDS011;11497;52.222;21.246;2024-02-14T06:58:17;31.95;;;18.08;;
22660;SDS011;11497;52.222;21.246;2024-02-14T07:00:45;33.33;;;17.58;;
22660;SDS011;11497;52.222;21.246;2024-02-14T07:03:13;31.20;;;16.77;;
22660;SDS011;11497;52.222;21.246;2024-02-14T07:05:41;28.20;;;16.80;;
22660;SDS011;11497;52.222;21.246;2024-02-14T07:08:10;29.90;;;16.45;;
22660;SDS011;11497;52.222;21.246;2024-02-14T07:10:38;31.92;;;16.15;;
22660;SDS011;11497;52.222;21.246;2024-02-14T07:13:06;26.83;;;15.48;;
22660;SDS011;11497;52.222;21.246;2024-02-14T07:15:34;27.25;;;15.35;;
22660;SDS011;11497;52.222;21.246;2024-02-14T07:18:02;27.40;;;15.93;;
22660;SDS011;11497;52.222;21.246;2024-02-14T07:20:30;25.88;;;16.17;;
22660;SDS011;11497;52.222;21.246;2024-02-14T07:22:58;33.72;;;16.73;;
22660;SDS011;11497;52.222;21.246;2024-02-14T07:25:26;27.20;;;14.65;;
22660;SDS011;11497;52.222;21.246;2024-02-14T07:27:54;28.52;;;15.38;;
22660;SDS011;11497;52.222;21.246;2024-02-14T07:30:22;30.33;;;15.98;;
22660;SDS011;11497;52.222;21.246;2024-02-14T07:32:50;29.10;;;14.88;;
22660;SDS011;11497;52.222;21.246;2024-02-14T07:35:18;29.50;;;15.30;;
22660;SDS011;11497;52.222;21.246;2024-02-14T07:37:46;26.50;;;14.93;;
22660;SDS011;11497;52.222;21.246;2024-02-14T07:40:15;24.77;;;14.77;;
22660;SDS011;11497;52.222;21.246;2024-02-14T07:42:44;26.25;;;14.85;;
22660;SDS011;11497;52.222;21.246;2024-02-14T07:45:12;27.20;;;14.48;;
22660;SDS011;11497;52.222;21.246;2024-02-14T07:47:41;29.65;;;14.55;;
22660;SDS011;11497;52.222;21.246;2024-02-14T07:50:09;28.33;;;14.43;;
22660;SDS011;11497;52.222;21.246;2024-02-14T07:52:41;23.58;;;14.10;;
22660;SDS011;11497;52.222;21.246;2024-02-14T07:55:10;29.15;;;14.00;;
22660;SDS011;11497;52.222;21.246;2024-02-14T07:57:39;27.23;;;13.93;;
22660;SDS011;11497;52.222;21.246;2024-02-14T08:00:08;21.90;;;12.80;;
22660;SDS011;11497;52.222;21.246;2024-02-14T08:02:37;25.65;;;13.43;;
22660;SDS011;11497;52.222;21.246;2024-02-14T08:05:05;25.92;;;13.88;;
22660;SDS011;11497;52.222;21.246;2024-02-14T08:07:33;24.58;;;13.00;;
22660;SDS011;11497;52.222;21.246;2024-02-14T08:10:01;24.00;;;12.50;;
22660;SDS011;11497;52.222;21.246;2024-02-14T08:12:29;25.05;;;12.30;;
22660;SDS011;11497;52.222;21.246;2024-02-14T08:14:57;23.17;;;12.48;;
22660;SDS011;11497;52.222;21.246;2024-02-14T08:17:31;20.42;;;11.93;;
22660;SDS011;11497;52.222;21.246;2024-02-14T08:20:00;22.13;;;12.05;;
22660;SDS011;11497;52.222;21.246;2024-02-14T08:22:31;21.63;;;10.57;;
22660;SDS011;11497;52.222;21.246;2024-02-14T08:24:59;20.25;;;11.38;;
22660;SDS011;11497;52.222;21.246;2024-02-14T08:27:27;17.02;;;10.27;;
22660;SDS011;11497;52.222;21.246;2024-02-14T08:29:58;18.35;;;9.95;;
22660;SDS011;11497;52.222;21.246;2024-02-14T08:32:26;18.85;;;10.30;;
22660;SDS011;11497;52.222;21.246;2024-02-14T08:34:55;17.20;;;9.88;;
22660;SDS011;11497;52.222;21.246;2024-02-14T08:37:23;18.45;;;10.23;;
22660;SDS011;11497;52.222;21.246;2024-02-14T08:39:51;16.13;;;8.90;;
22660;SDS011;11497;52.222;21.246;2024-02-14T08:42:19;15.65;;;9.32;;
22660;SDS011;11497;52.222;21.246;2024-02-14T08:44:47;15.82;;;8.30;;
22660;SDS011;11497;52.222;21.246;2024-02-14T08:47:15;11.32;;;7.90;;
22660;SDS011;11497;52.222;21.246;2024-02-14T08:49:44;16.92;;;8.48;;
22660;SDS011;11497;52.222;21.246;2024-02-14T08:52:12;12.02;;;7.63;;
22660;SDS011;11497;52.222;21.246;2024-02-14T08:54:40;13.80;;;7.75;;
22660;SDS011;11497;52.222;21.246;2024-02-14T08:57:08;13.15;;;6.63;;
22660;SDS011;11497;52.222;21.246;2024-02-14T08:59:37;10.25;;;6.00;;
22660;SDS011;11497;52.222;21.246;2024-02-14T09:02:05;12.02;;;5.95;;
22660;SDS011;11497;52.222;21.246;2024-02-14T09:04:33;9.07;;;4.68;;
22660;SDS011;11497;52.222;21.246;2024-02-14T09:07:01;6.60;;;4.60;;
22660;SDS011;11497;52.222;21.246;2024-02-14T09:09:30;10.00;;;4.28;;
22660;SDS011;11497;52.222;21.246;2024-02-14T09:11:58;10.38;;;5.00;;
22660;SDS011;11497;52.222;21.246;2024-02-14T09:14:29;10.02;;;4.60;;
22660;SDS011;11497;52.222;21.246;2024-02-14T09:16:58;8.25;;;4.18;;
22660;SDS011;11497;52.222;21.246;2024-02-14T09:19:26;7.72;;;4.15;;
22660;SDS011;11497;52.222;21.246;2024-02-14T09:21:55;7.85;;;4.40;;
22660;SDS011;11497;52.222;21.246;2024-02-14T09:24:22;8.40;;;4.38;;
22660;SDS011;11497;52.222;21.246;2024-02-14T09:26:51;8.63;;;4.65;;
22660;SDS011;11497;52.222;21.246;2024-02-14T09:29:18;8.65;;;4.43;;
22660;SDS011;11497;52.222;21.246;2024-02-14T09:31:47;9.02;;;4.60;;
22660;SDS011;11497;52.222;21.246;2024-02-14T09:34:18;6.53;;;4.20;;
22660;SDS011;11497;52.222;21.246;2024-02-14T09:36:47;11.45;;;4.70;;
22660;SDS011;11497;52.222;21.246;2024-02-14T09:39:16;10.45;;;4.65;;
22660;SDS011;11497;52.222;21.246;2024-02-14T09:41:46;11.77;;;5.40;;
22660;SDS011;11497;52.222;21.246;2024-02-14T09:44:21;8.82;;;4.75;;
22660;SDS011;11497;52.222;21.246;2024-02-14T09:46:50;10.30;;;4.88;;
22660;SDS011;11497;52.222;21.246;2024-02-14T09:49:19;8.57;;;4.90;;
22660;SDS011;11497;52.222;21.246;2024-02-14T09:51:48;7.78;;;4.97;;
22660;SDS011;11497;52.222;21.246;2024-02-14T09:54:18;8.23;;;4.35;;
22660;SDS011;11497;52.222;21.246;2024-02-14T09:56:50;13.23;;;4.80;;
22660;SDS011;11497;52.222;21.246;2024-02-14T10:01:48;9.60;;;5.72;;
22660;SDS011;11497;52.222;21.246;2024-02-14T10:04:18;9.90;;;4.93;;
22660;SDS011;11497;52.222;21.246;2024-02-14T10:06:49;8.43;;;4.40;;
22660;SDS011;11497;52.222;21.246;2024-02-14T10:09:21;8.98;;;4.88;;
22660;SDS011;11497;52.222;21.246;2024-02-14T10:11:50;8.82;;;3.90;;
22660;SDS011;11497;52.222;21.246;2024-02-14T10:14:18;12.30;;;4.03;;
22660;SDS011;11497;52.222;21.246;2024-02-14T10:16:46;10.40;;;4.07;;
22660;SDS011;11497;52.222;21.246;2024-02-14T10:19:14;7.53;;;3.88;;
22660;SDS011;11497;52.222;21.246;2024-02-14T10:21:55;6.43;;;3.83;;
22660;SDS011;11497;52.222;21.246;2024-02-14T10:24:27;8.23;;;4.00;;
22660;SDS011;11497;52.222;21.246;2024-02-14T10:26:55;10.60;;;3.92;;
22660;SDS011;11497;52.222;21.246;2024-02-14T10:29:27;7.38;;;3.67;;
22660;SDS011;11497;52.222;21.246;2024-02-14T10:31:55;7.10;;;3.35;;
22660;SDS011;11497;52.222;21.246;2024-02-14T10:34:25;6.32;;;3.53;;
22660;SDS011;11497;52.222;21.246;2024-02-14T10:36:56;6.47;;;3.53;;
22660;SDS011;11497;52.222;21.246;2024-02-14T10:39:25;9.95;;;4.05;;
22660;SDS011;11497;52.222;21.246;2024-02-14T10:41:53;9.13;;;4.03;;
22660;SDS011;11497;52.222;21.246;2024-02-14T10:44:21;6.05;;;3.55;;
22660;SDS011;11497;52.222;21.246;2024-02-14T10:46:49;7.63;;;4.05;;
22660;SDS011;11497;52.222;21.246;2024-02-14T10:49:22;7.22;;;3.60;;
22660;SDS011;11497;52.222;21.246;2024-02-14T10:51:56;6.57;;;3.72;;
22660;SDS011;11497;52.222;21.246;2024-02-14T10:54:31;7.32;;;4.00;;
22660;SDS011;11497;52.222;21.246;2024-02-14T10:57:04;8.00;;;3.65;;
22660;SDS011;11497;52.222;21.246;2024-02-14T10:59:41;7.57;;;3.75;;
22660;SDS011;11497;52.222;21.246;2024-02-14T11:02:11;6.97;;;3.80;;
22660;SDS011;11497;52.222;21.246;2024-02-14T11:04:40;8.20;;;4.18;;
22660;SDS011;11497;52.222;21.246;2024-02-14T11:07:11;8.45;;;4.35;;
22660;SDS011;11497;52.222;21.246;2024-02-14T11:09:40;10.00;;;4.32;;
22660;SDS011;11497;52.222;21.246;2024-02-14T11:12:08;5.72;;;3.78;;
22660;SDS011;11497;52.222;21.246;2024-02-14T11:14:38;5.93;;;3.70;;
22660;SDS011;11497;52.222;21.246;2024-02-14T11:19:40;10.02;;;4.10;;
22660;SDS011;11497;52.222;21.246;2024-02-14T11:22:17;5.88;;;3.35;;
22660;SDS011;11497;52.222;21.246;2024-02-14T11:24:47;6.82;;;3.10;;
22660;SDS011;11497;52.222;21.246;2024-02-14T11:27:17;11.15;;;3.65;;
22660;SDS011;11497;52.222;21.246;2024-02-14T11:30:00;5.88;;;3.15;;
22660;SDS011;11497;52.222;21.246;2024-02-14T11:32:31;7.32;;;3.47;;
22660;SDS011;11497;52.222;21.246;2024-02-14T11:35:00;6.70;;;3.40;;
22660;SDS011;11497;52.222;21.246;2024-02-14T11:37:28;7.35;;;3.78;;
22660;SDS011;11497;52.222;21.246;2024-02-14T11:39:58;6.18;;;2.78;;
22660;SDS011;11497;52.222;21.246;2024-02-14T11:42:27;8.93;;;3.30;;
22660;SDS011;11497;52.222;21.246;2024-02-14T11:44:56;5.78;;;3.40;;
22660;SDS011;11497;52.222;21.246;2024-02-14T11:47:24;6.05;;;3.30;;
22660;SDS011;11497;52.222;21.246;2024-02-14T11:49:52;4.53;;;3.28;;
22660;SDS011;11497;52.222;21.246;2024-02-14T11:52:21;4.30;;;2.90;;
22660;SDS011;11497;52.222;21.246;2024-02-14T11:54:49;4.97;;;3.38;;
22660;SDS011;11497;52.222;21.246;2024-02-14T11:57:17;3.88;;;3.00;;
22660;SDS011;11497;52.222;21.246;2024-02-14T11:59:48;3.60;;;2.92;;
22660;SDS011;11497;52.222;21.246;2024-02-14T12:02:19;5.95;;;3.15;;
22660;SDS011;11497;52.222;21.246;2024-02-14T12:04:48;6.72;;;3.67;;
22660;SDS011;11497;52.222;21.246;2024-02-14T12:07:22;5.07;;;2.80;;
22660;SDS011;11497;52.222;21.246;2024-02-14T12:09:51;5.53;;;3.10;;
22660;SDS011;11497;52.222;21.246;2024-02-14T12:12:21;5.65;;;2.90;;
22660;SDS011;11497;52.222;21.246;2024-02-14T12:14:52;6.00;;;3.15;;
22660;SDS011;11497;52.222;21.246;2024-02-14T12:17:20;6.03;;;3.45;;
22660;SDS011;11497;52.222;21.246;2024-02-14T12:19:51;7.85;;;3.60;;
22660;SDS011;11497;52.222;21.246;2024-02-14T12:22:20;6.38;;;3.33;;
22660;SDS011;11497;52.222;21.246;2024-02-14T12:24:48;6.53;;;3.00;;
22660;SDS011;11497;52.222;21.246;2024-02-14T12:27:17;6.07;;;3.00;;
22660;SDS011;11497;52.222;21.246;2024-02-14T12:29:46;6.10;;;3.00;;
22660;SDS011;11497;52.222;21.246;2024-02-14T12:32:16;6.88;;;3.25;;
22660;SDS011;11497;52.222;21.246;2024-02-14T12:34:45;8.27;;;3.33;;
22660;SDS011;11497;52.222;21.246;2024-02-14T12:37:13;5.32;;;3.17;;
22660;SDS011;11497;52.222;21.246;2024-02-14T12:39:42;7.28;;;3.53;;
22660;SDS011;11497;52.222;21.246;2024-02-14T12:42:10;7.93;;;3.65;;
22660;SDS011;11497;52.222;21.246;2024-02-14T12:44:38;8.15;;;3.65;;
22660;SDS011;11497;52.222;21.246;2024-02-14T12:47:06;9.50;;;3.53;;
22660;SDS011;11497;52.222;21.246;2024-02-14T12:49:35;6.22;;;3.85;;
22660;SDS011;11497;52.222;21.246;2024-02-14T12:52:03;5.75;;;3.97;;
22660;SDS011;11497;52.222;21.246;2024-02-14T12:54:32;6.22;;;3.70;;
22660;SDS011;11497;52.222;21.246;2024-02-14T12:56:59;8.23;;;3.58;;
22660;SDS011;11497;52.222;21.246;2024-02-14T12:59:28;6.55;;;3.72;;
22660;SDS011;11497;52.222;21.246;2024-02-14T13:01:56;8.15;;;3.80;;
22660;SDS011;11497;52.222;21.246;2024-02-14T13:04:24;6.88;;;3.47;;
22660;SDS011;11497;52.222;21.246;2024-02-14T13:06:52;9.02;;;3.83;;
22660;SDS011;11497;52.222;21.246;2024-02-14T13:09:21;6.55;;;3.55;;
22660;SDS011;11497;52.222;21.246;2024-02-14T13:11:49;9.00;;;3.95;;
22660;SDS011;11497;52.222;21.246;2024-02-14T13:14:18;6.30;;;3.50;;
22660;SDS011;11497;52.222;21.246;2024-02-14T13:16:46;8.25;;;3.75;;
22660;SDS011;11497;52.222;21.246;2024-02-14T13:19:14;5.50;;;3.55;;
22660;SDS011;11497;52.222;21.246;2024-02-14T13:21:45;5.35;;;2.95;;
22660;SDS011;11497;52.222;21.246;2024-02-14T13:24:15;3.80;;;3.17;;
22660;SDS011;11497;52.222;21.246;2024-02-14T13:26:43;4.95;;;3.28;;
22660;SDS011;11497;52.222;21.246;2024-02-14T13:29:12;6.47;;;3.53;;
22660;SDS011;11497;52.222;21.246;2024-02-14T13:31:40;7.47;;;3.40;;
22660;SDS011;11497;52.222;21.246;2024-02-14T13:34:09;7.38;;;3.33;;
22660;SDS011;11497;52.222;21.246;2024-02-14T13:36:38;6.70;;;3.40;;
22660;SDS011;11497;52.222;21.246;2024-02-14T13:39:07;5.70;;;3.40;;
22660;SDS011;11497;52.222;21.246;2024-02-14T13:41:35;5.95;;;3.60;;
22660;SDS011;11497;52.222;21.246;2024-02-14T13:44:07;5.63;;;3.65;;
22660;SDS011;11497;52.222;21.246;2024-02-14T13:46:37;7.32;;;4.03;;
22660;SDS011;11497;52.222;21.246;2024-02-14T13:49:10;6.95;;;4.00;;
22660;SDS011;11497;52.222;21.246;2024-02-14T13:51:44;8.30;;;3.72;;
22660;SDS011;11497;52.222;21.246;2024-02-14T13:54:12;9.88;;;4.03;;
22660;SDS011;11497;52.222;21.246;2024-02-14T13:56:40;5.70;;;3.83;;
22660;SDS011;11497;52.222;21.246;2024-02-14T13:59:08;6.32;;;4.05;;
22660;SDS011;11497;52.222;21.246;2024-02-14T14:01:36;8.57;;;4.13;;
22660;SDS011;11497;52.222;21.246;2024-02-14T14:04:05;11.30;;;4.32;;
22660;SDS011;11497;52.222;21.246;2024-02-14T14:06:33;10.05;;;4.30;;
22660;SDS011;11497;52.222;21.246;2024-02-14T14:09:02;7.03;;;3.97;;
22660;SDS011;11497;52.222;21.246;2024-02-14T14:11:30;8.25;;;4.28;;
22660;SDS011;11497;52.222;21.246;2024-02-14T14:13:58;7.90;;;3.75;;
22660;SDS011;11497;52.222;21.246;2024-02-14T14:16:26;8.10;;;4.18;;
22660;SDS011;11497;52.222;21.246;2024-02-14T14:18:54;11.48;;;4.00;;
22660;SDS011;11497;52.222;21.246;2024-02-14T14:21:23;7.55;;;3.47;;
22660;SDS011;11497;52.222;21.246;2024-02-14T14:23:52;4.70;;;3.28;;
22660;SDS011;11497;52.222;21.246;2024-02-14T14:26:20;5.53;;;3.92;;
22660;SDS011;11497;52.222;21.246;2024-02-14T14:28:48;6.18;;;3.90;;
22660;SDS011;11497;52.222;21.246;2024-02-14T14:31:16;5.10;;;3.17;;
22660;SDS011;11497;52.222;21.246;2024-02-14T14:33:44;5.38;;;3.42;;
22660;SDS011;11497;52.222;21.246;2024-02-14T14:36:12;7.55;;;3.47;;